Terminal Aerodrome Forecast
Issued by NWS Sterling, VA

Home | Current Version | Previous Version | Text Only | Print | Product List | Glossary On
Versions: 1 2 3 4 5 6 7 8 9 10 11 12 13 14 15 16 17 18
315
FTUS41 KLWX 010522
TAFMRB
TAF
KMRB 010522Z 0106/0206 03005KT 3SM -RADZ BR OVC008
     FM011000 03005KT 2SM -RADZ BR OVC008
     FM011500 05004KT 3SM BR OVC008
     FM012300 VRB03KT P6SM SCT010
     FM020000 VRB03KT 3SM BR SCT015
     FM020200 00000KT 3SM BR BKN010=

USA.gov is the U.S. government's official web portal to all federal, state and local government web resources and services.